Terminal Aerodrome Forecast
Issued by NWS Louisville, KY

Home | Current Version | Previous Version | Text Only | Print | Product List | Glossary On
Versions: 1 2 3 4 5 6 7 8 9 10 11 12 13 14
673
FTUS43 KLMK 142325
TAFBWG
TAF
KBWG 142325Z 1500/1524 32004KT P6SM SCT035 BKN040
     FM151300 27005KT P6SM SCT050
     FM151700 27010G18KT P6SM FEW090 FEW110=

USA.gov is the U.S. government's official web portal to all federal, state and local government web resources and services.